Time;durP1;ratioP1;P1;durP2;ratioP2;P2;SDS_P1;SDS_P2;PMS_P1;PMS_P2;Temp;Humidity;BMP_temperature;BMP_pressure;BME280_temperature;BME280_humidity;BME280_pressure;Samples;Min_cycle;Max_cycle;Signal;HPM_P1;HPM_P2
2022/01/29 00:00:06;;;;;;;26.75;19.60;;;;;;;18.29;23.44;97994.91;5154298;27;20007;-65
2022/01/29 00:02:32;;;;;;;25.42;19.00;;;;;;;18.28;23.38;97990.59;5172370;27;20014;-65
2022/01/29 00:04:57;;;;;;;24.95;19.75;;;;;;;18.30;23.27;97990.38;5172251;27;20069;-64
2022/01/29 00:07:23;;;;;;;28.48;20.27;;;;;;;18.29;23.23;97984.19;5172237;27;20010;-63
2022/01/29 00:09:48;;;;;;;27.77;19.73;;;;;;;18.31;23.47;97989.34;5172293;27;20018;-64
2022/01/29 00:12:14;;;;;;;29.42;20.58;;;;;;;18.30;23.26;97980.50;5185740;27;20086;-63
2022/01/29 00:14:40;;;;;;;24.45;18.40;;;;;;;18.33;23.37;97981.09;5193198;27;20127;-63
2022/01/29 00:17:06;;;;;;;28.40;20.42;;;;;;;18.34;23.39;97969.34;5193184;27;20007;-64
2022/01/29 00:19:31;;;;;;;25.00;17.83;;;;;;;18.35;23.55;97965.63;5193102;27;20009;-63
2022/01/29 00:21:58;;;;;;;26.85;20.70;;;;;;;18.35;23.33;97965.63;5193043;27;20006;-63
2022/01/29 00:24:24;;;;;;;28.33;19.42;;;;;;;18.34;23.41;97964.81;5192802;27;20058;-64
2022/01/29 00:26:50;;;;;;;26.55;19.27;;;;;;;18.35;23.23;97963.78;5192821;27;20006;-63
2022/01/29 00:29:20;;;;;;;27.65;20.83;;;;;;;18.36;23.19;97964.59;5192818;27;20025;-64
2022/01/29 00:31:46;;;;;;;26.35;20.35;;;;;;;18.35;23.10;97961.13;5192772;27;20010;-63
2022/01/29 00:34:12;;;;;;;26.58;18.95;;;;;;;18.36;23.25;97968.13;5192686;27;20013;-64
2022/01/29 00:36:37;;;;;;;26.20;19.38;;;;;;;18.36;23.07;97975.31;5192703;27;20010;-65
2022/01/29 00:39:03;;;;;;;29.38;20.45;;;;;;;18.37;23.07;97968.94;5192587;27;20021;-64
2022/01/29 00:41:28;;;;;;;26.83;20.33;;;;;;;18.35;22.94;97966.47;5192533;27;20056;-64
2022/01/29 00:43:54;;;;;;;27.45;20.48;;;;;;;18.36;22.98;97968.13;5192474;27;20223;-63
2022/01/29 00:46:20;;;;;;;27.58;19.75;;;;;;;18.38;23.05;97975.94;5174630;27;20327;-64
2022/01/29 00:48:45;;;;;;;27.48;19.55;;;;;;;18.37;23.04;97980.47;5171530;27;20014;-63
2022/01/29 00:51:11;;;;;;;25.20;19.55;;;;;;;18.39;22.82;97980.25;5171602;27;20010;-64
2022/01/29 00:53:36;;;;;;;29.00;19.42;;;;;;;18.38;22.98;97976.75;5171412;27;20227;-64
2022/01/29 00:56:06;;;;;;;25.83;19.33;;;;;;;18.38;22.82;97970.56;5171212;27;20113;-63
2022/01/29 00:58:32;;;;;;;22.92;17.15;;;;;;;18.37;22.82;97977.81;5171540;27;20015;-64
2022/01/29 01:00:58;;;;;;;25.95;19.30;;;;;;;18.35;22.73;97971.81;5171306;27;20022;-63
2022/01/29 01:03:23;;;;;;;29.75;18.92;;;;;;;18.32;22.60;97971.41;5171210;27;20011;-63
2022/01/29 01:05:49;;;;;;;24.75;17.95;;;;;;;18.29;22.59;97978.00;5170834;27;20018;-63
2022/01/29 01:08:14;;;;;;;24.70;18.13;;;;;;;18.26;22.92;97979.25;5170768;27;20093;-62
2022/01/29 01:10:40;;;;;;;24.80;18.23;;;;;;;18.25;22.67;97979.44;5171217;27;20021;-63
2022/01/29 01:13:05;;;;;;;22.88;18.80;;;;;;;18.23;22.72;97971.63;5191791;27;20029;-64
2022/01/29 01:15:31;;;;;;;22.15;17.90;;;;;;;18.23;22.82;97976.19;5191831;27;20060;-63
2022/01/29 01:17:57;;;;;;;24.70;17.75;;;;;;;18.26;22.85;97978.41;5191605;27;20022;-64
2022/01/29 01:20:22;;;;;;;22.95;17.20;;;;;;;18.24;22.83;97972.44;5191795;27;20135;-63
2022/01/29 01:22:48;;;;;;;24.45;18.15;;;;;;;18.25;22.89;97984.81;5191750;27;20014;-63
2022/01/29 01:25:13;;;;;;;22.55;16.55;;;;;;;18.22;22.98;97983.38;5171127;27;20023;-64
2022/01/29 01:27:39;;;;;;;27.38;18.20;;;;;;;18.21;22.84;97979.06;5170701;27;20170;-63
2022/01/29 01:30:05;;;;;;;24.73;18.05;;;;;;;18.24;22.79;97975.97;5170760;27;20220;-63
2022/01/29 01:32:31;;;;;;;25.80;18.27;;;;;;;18.25;22.95;97974.94;5170610;27;20014;-63
2022/01/29 01:35:07;;;;;;;21.77;16.92;;;;;;;18.25;22.99;97977.63;5170510;27;20189;-64
2022/01/29 01:37:40;;;;;;;23.55;17.13;;;;;;;18.25;22.98;97971.41;5170385;27;20014;-64
2022/01/29 01:40:08;;;;;;;25.42;18.15;;;;;;;18.26;22.93;97973.06;5170482;27;20073;-63
2022/01/29 01:42:33;;;;;;;25.48;17.70;;;;;;;18.26;22.95;97973.91;5170423;27;20014;-63
2022/01/29 01:44:59;;;;;;;23.95;18.63;;;;;;;18.27;23.09;97972.03;5170615;27;20020;-63
2022/01/29 01:47:25;;;;;;;23.20;17.90;;;;;;;18.27;22.98;97972.03;5170313;27;20034;-63
2022/01/29 01:49:50;;;;;;;23.83;18.38;;;;;;;18.27;23.10;97972.03;5170262;27;20010;-62
2022/01/29 01:52:17;;;;;;;25.13;17.58;;;;;;;18.32;23.10;97969.56;5170227;27;20228;-62
2022/01/29 01:54:44;;;;;;;22.23;17.77;;;;;;;18.39;23.05;97964.19;5169905;27;20018;-62
2022/01/29 01:57:10;;;;;;;26.67;17.55;;;;;;;18.48;22.98;97967.47;5169637;27;20049;-64
2022/01/29 01:59:35;;;;;;;28.08;19.52;;;;;;;18.47;22.88;97974.66;5168320;27;20091;-62
2022/01/29 02:02:01;;;;;;;25.08;19.00;;;;;;;18.50;22.78;97970.75;5177657;27;20157;-64
2022/01/29 02:04:27;;;;;;;26.17;17.35;;;;;;;18.52;22.84;97968.69;5160119;27;20231;-64
2022/01/29 02:06:56;;;;;;;23.65;16.52;;;;;;;18.52;23.04;97972.19;5149199;27;20034;-65
2022/01/29 02:09:24;;;;;;;24.77;17.77;;;;;;;18.53;22.94;97976.50;5167167;27;20010;-64
2022/01/29 02:11:55;;;;;;;21.45;16.02;;;;;;;18.53;22.90;97960.44;5190821;27;20204;-65
2022/01/29 02:14:24;;;;;;;;;;;;;;;18.44;23.55;97969.75;5191227;27;20022;-63
2022/01/29 02:16:50;;;;;;;21.73;15.68;;;;;;;18.47;23.06;97981.88;5190762;27;19910;-65
2022/01/29 02:19:16;;;;;;;22.23;16.95;;;;;;;18.48;23.01;97970.94;5175701;27;20011;-64
2022/01/29 02:21:42;;;;;;;22.33;16.33;;;;;;;18.48;23.02;97970.94;5171070;27;20045;-64
2022/01/29 02:24:07;;;;;;;21.88;16.00;;;;;;;18.48;23.02;97964.78;5169666;27;20053;-64
2022/01/29 02:26:33;;;;;;;22.20;15.35;;;;;;;18.48;23.01;97976.31;5169644;27;20071;-65
2022/01/29 02:28:58;;;;;;;23.52;17.63;;;;;;;18.46;23.00;97973.00;5169174;27;20022;-64
2022/01/29 02:31:24;;;;;;;27.83;18.13;;;;;;;18.49;22.94;97977.97;5169376;27;20019;-66
2022/01/29 02:34:15;;;;;;;24.50;17.58;;;;;;;18.49;22.85;97979.81;5168817;27;20062;-64
2022/01/29 02:36:43;;;;;;;27.40;18.08;;;;;;;18.41;22.91;97980.88;5168421;27;20031;-66
2022/01/29 02:39:11;;;;;;;24.42;18.67;;;;;;;18.36;22.90;97961.94;5168820;27;20046;-65
2022/01/29 02:41:40;;;;;;;24.33;18.30;;;;;;;18.31;22.81;97970.59;5169248;27;20026;-64
2022/01/29 02:44:06;;;;;;;24.17;17.02;;;;;;;18.28;22.87;97966.50;5181554;27;20033;-64
2022/01/29 02:49:13;;;;;;;24.00;17.93;;;;;;;18.18;23.04;97974.13;5169373;27;20007;-64
2022/01/29 02:51:52;;;;;;;24.98;19.02;;;;;;;18.15;23.09;97972.69;5169501;27;20022;-65
2022/01/29 02:54:19;;;;;;;23.25;17.25;;;;;;;18.12;23.07;97981.13;5169324;27;20121;-66
2022/01/29 02:56:45;;;;;;;22.58;17.58;;;;;;;18.09;22.96;97986.88;5169295;27;20228;-66
2022/01/29 02:59:10;;;;;;;25.75;17.60;;;;;;;18.05;23.16;97977.66;5169155;27;20019;-66
2022/01/29 03:01:36;;;;;;;29.30;19.08;;;;;;;18.06;23.31;97981.13;5169402;27;20022;-66
2022/01/29 03:04:03;;;;;;;26.60;20.08;;;;;;;18.04;23.14;97980.50;5169274;27;20011;-66
2022/01/29 03:06:29;;;;;;;22.83;18.40;;;;;;;18.04;23.10;97975.16;5169209;27;20166;-66
2022/01/29 03:08:55;;;;;;;26.08;19.67;;;;;;;18.01;22.99;97973.72;5169250;27;20148;-67
2022/01/29 03:11:20;;;;;;;23.55;17.35;;;;;;;18.00;23.23;97980.13;5169168;27;20235;-66
2022/01/29 03:13:47;;;;;;;25.05;18.00;;;;;;;17.95;23.24;97975.34;5169227;27;20026;-66
2022/01/29 03:16:12;;;;;;;24.30;18.02;;;;;;;17.94;23.13;97981.72;5169207;27;20037;-65
2022/01/29 03:18:38;;;;;;;26.77;18.83;;;;;;;17.93;23.12;97982.75;5169212;27;20251;-65
2022/01/29 03:21:03;;;;;;;24.95;18.75;;;;;;;17.91;23.21;97984.81;5169177;27;20328;-67
2022/01/29 03:23:29;;;;;;;26.23;19.73;;;;;;;17.89;23.17;97978.03;5169074;27;20075;-65
2022/01/29 03:25:55;;;;;;;27.50;19.58;;;;;;;17.89;23.01;97981.53;5169114;27;20029;-66
2022/01/29 03:28:20;;;;;;;24.02;18.40;;;;;;;17.87;23.33;97988.94;5169030;27;20078;-66
2022/01/29 03:30:46;;;;;;;25.63;20.02;;;;;;;17.87;23.23;97991.59;5171862;27;20069;-65
2022/01/29 03:33:12;;;;;;;24.23;18.25;;;;;;;17.87;23.23;97991.59;5173023;27;20181;-65
2022/01/29 03:35:37;;;;;;;26.35;19.15;;;;;;;17.85;23.02;97985.66;5173033;27;20045;-66
2022/01/29 03:38:04;;;;;;;23.15;17.00;;;;;;;17.84;23.04;97992.03;5154652;27;20023;-65
2022/01/29 03:40:31;;;;;;;26.02;18.20;;;;;;;17.84;23.10;97992.03;5172870;27;20033;-66
2022/01/29 03:43:07;;;;;;;24.15;17.67;;;;;;;17.82;23.29;97994.09;5172983;27;20007;-65
2022/01/29 03:45:32;;;;;;;22.15;17.05;;;;;;;17.81;23.28;97990.59;5172664;27;20041;-67
2022/01/29 03:47:58;;;;;;;26.05;18.63;;;;;;;17.80;23.18;97986.25;5172724;27;20018;-65
2022/01/29 03:50:24;;;;;;;25.77;19.63;;;;;;;17.82;23.15;97991.41;5172750;27;20015;-65
2022/01/29 03:52:49;;;;;;;23.75;17.52;;;;;;;17.79;23.25;97979.25;5172632;27;20026;-65
2022/01/29 03:55:15;;;;;;;24.95;18.73;;;;;;;17.78;23.24;97983.00;5172548;27;20127;-65
2022/01/29 03:57:40;;;;;;;20.83;17.33;;;;;;;17.79;23.46;97983.81;5172442;27;20087;-65
2022/01/29 04:00:08;;;;;;;27.05;17.42;;;;;;;17.77;23.40;97977.81;5172536;27;20014;-67
2022/01/29 04:02:34;;;;;;;25.90;17.35;;;;;;;17.74;23.26;97983.59;5172470;27;20137;-66
2022/01/29 04:04:59;;;;;;;24.77;18.30;;;;;;;17.74;23.31;97978.22;5172361;27;20091;-65
2022/01/29 04:07:25;;;;;;;21.60;16.50;;;;;;;17.73;23.34;97984.59;5172372;27;20254;-66
2022/01/29 04:09:52;;;;;;;24.50;18.02;;;;;;;17.72;23.64;97991.81;5172355;27;20224;-66
2022/01/29 04:12:18;;;;;;;24.00;17.80;;;;;;;17.68;23.40;97991.41;5172257;27;20038;-66
2022/01/29 04:14:44;;;;;;;25.27;18.60;;;;;;;17.69;23.64;98000.25;5172242;27;20224;-66
2022/01/29 04:17:12;;;;;;;24.55;17.55;;;;;;;17.69;23.27;98001.09;5172082;27;20428;-66
2022/01/29 04:19:39;;;;;;;23.73;17.33;;;;;;;17.69;23.59;98001.09;5172153;27;20169;-65
2022/01/29 04:22:05;;;;;;;25.88;18.80;;;;;;;17.72;23.47;98007.88;5171974;27;20015;-66
2022/01/29 04:24:32;;;;;;;21.65;16.75;;;;;;;17.71;23.52;98003.56;5172052;27;20022;-64
2022/01/29 04:26:59;;;;;;;23.10;18.05;;;;;;;17.68;23.41;98004.78;5172072;27;20216;-66
2022/01/29 04:29:28;;;;;;;22.50;18.30;;;;;;;17.68;23.63;98001.28;5171938;27;20017;-65
2022/01/29 04:34:19;;;;;;;27.50;19.65;;;;;;;17.66;23.55;97996.16;5171702;27;20220;-66
2022/01/29 04:36:45;;;;;;;23.67;17.30;;;;;;;17.66;23.27;98000.66;5171785;27;20216;-65
2022/01/29 04:39:11;;;;;;;25.65;19.42;;;;;;;17.64;23.54;98002.72;5171712;27;20014;-66
2022/01/29 04:41:36;;;;;;;22.20;16.85;;;;;;;17.62;23.57;98002.91;5170729;27;20018;-65
2022/01/29 04:44:02;;;;;;;22.42;16.77;;;;;;;17.60;23.45;97999.63;5171513;27;20019;-65
2022/01/29 04:46:28;;;;;;;22.55;16.67;;;;;;;17.61;23.60;98000.47;5171655;27;20078;-66
2022/01/29 04:48:54;;;;;;;27.88;19.33;;;;;;;17.59;23.43;98000.66;5171536;27;20026;-65
2022/01/29 04:51:20;;;;;;;23.55;17.67;;;;;;;17.59;23.43;97995.31;5171563;27;20247;-65
2022/01/29 04:53:46;;;;;;;26.38;19.05;;;;;;;17.58;23.39;98009.69;5171458;27;20015;-65
2022/01/29 04:56:11;;;;;;;23.48;17.98;;;;;;;17.56;23.22;98006.44;5171411;27;20046;-64
2022/01/29 04:58:37;;;;;;;22.00;17.83;;;;;;;17.55;23.55;98004.78;5171397;27;20011;-65
2022/01/29 05:01:04;;;;;;;23.35;17.42;;;;;;;17.53;23.40;98007.63;5171388;27;20010;-64
2022/01/29 05:03:30;;;;;;;23.65;17.98;;;;;;;17.52;23.50;98021.22;5171241;27;20038;-65
2022/01/29 05:05:56;;;;;;;24.02;17.92;;;;;;;17.50;23.40;98012.56;5171136;27;20022;-65
2022/01/29 05:08:22;;;;;;;23.10;17.52;;;;;;;17.50;23.52;98012.56;5171193;27;20014;-64
2022/01/29 05:10:48;;;;;;;21.33;15.57;;;;;;;17.48;23.66;98018.13;5171206;27;20053;-65
2022/01/29 05:13:18;;;;;;;22.70;17.52;;;;;;;17.47;23.55;98013.81;5170959;27;20037;-66
2022/01/29 05:16:10;;;;;;;27.08;19.05;;;;;;;17.49;23.45;98016.28;5171010;27;20074;-65
2022/01/29 05:27:00;;;;;;;22.73;17.23;;;;;;;17.42;23.67;97999.41;5170817;27;20117;-66
2022/01/29 05:29:30;;;;;;;28.98;19.52;;;;;;;17.41;23.73;98011.13;5170443;27;20052;-65
2022/01/29 05:31:56;;;;;;;24.05;17.92;;;;;;;17.39;23.40;98005.97;5170949;27;20034;-64
2022/01/29 05:34:22;;;;;;;20.58;16.67;;;;;;;17.37;23.56;98003.50;5170442;27;20315;-65
2022/01/29 05:36:48;;;;;;;26.58;18.42;;;;;;;17.37;23.78;98008.84;5170565;27;20038;-66
2022/01/29 05:39:15;;;;;;;24.20;18.40;;;;;;;17.38;23.72;98012.34;5170510;27;20067;-66
2022/01/29 05:41:40;;;;;;;25.90;18.65;;;;;;;17.39;23.82;98017.50;5170502;27;20074;-65
2022/01/29 05:44:06;;;;;;;28.90;18.60;;;;;;;17.42;23.55;98021.63;5170340;27;20064;-65
2022/01/29 05:46:32;;;;;;;26.75;19.60;;;;;;;17.39;23.87;98016.66;5170349;27;20010;-65
2022/01/29 05:48:57;;;;;;;25.33;18.20;;;;;;;17.42;23.94;98020.81;5170262;27;20010;-66
2022/01/29 05:51:23;;;;;;;27.00;17.98;;;;;;;17.43;23.68;98017.91;5170183;27;20022;-65
2022/01/29 05:53:48;;;;;;;29.70;20.00;;;;;;;17.43;23.60;98025.09;5169805;27;20049;-66
2022/01/29 05:56:14;;;;;;;26.00;19.10;;;;;;;17.40;23.93;98018.31;5170202;27;20010;-65
2022/01/29 05:58:39;;;;;;;27.10;19.17;;;;;;;17.39;23.69;98022.84;5170178;27;20015;-65
2022/01/29 06:01:05;;;;;;;27.55;18.38;;;;;;;17.39;23.44;98024.69;5170153;27;20014;-66
2022/01/29 06:03:31;;;;;;;31.58;20.80;;;;;;;17.40;23.73;98023.66;5169999;27;20038;-65
2022/01/29 06:05:56;;;;;;;25.90;19.20;;;;;;;17.37;23.41;98021.38;5169914;27;20030;-66
2022/01/29 06:08:22;;;;;;;24.25;18.58;;;;;;;17.37;23.48;98027.56;5169950;27;20015;-64
2022/01/29 06:10:48;;;;;;;26.90;19.48;;;;;;;17.36;23.57;98022.41;5169928;27;20043;-66
2022/01/29 06:13:16;;;;;;;26.92;19.77;;;;;;;17.36;23.54;98028.59;5169924;27;20042;-64
2022/01/29 06:15:48;;;;;;;27.00;19.55;;;;;;;17.37;23.68;98030.25;5169955;27;20081;-68
2022/01/29 06:18:24;;;;;;;26.25;19.63;;;;;;;17.36;23.81;98023.25;5169858;27;20025;-65
2022/01/29 06:20:52;;;;;;;29.50;20.70;;;;;;;17.35;23.79;98028.81;5169739;27;20227;-67
2022/01/29 06:23:21;;;;;;;25.85;19.77;;;;;;;17.36;23.72;98033.09;5169625;27;20021;-66
2022/01/29 06:25:47;;;;;;;26.50;20.05;;;;;;;17.35;23.56;98031.47;5169818;27;20007;-67
2022/01/29 06:28:13;;;;;;;26.58;19.90;;;;;;;17.35;23.81;98032.28;5169694;27;20130;-66
2022/01/29 06:30:38;;;;;;;28.08;20.15;;;;;;;17.37;23.79;98045.44;5169738;27;20049;-66
2022/01/29 06:33:08;;;;;;;27.52;19.90;;;;;;;17.37;23.67;98030.25;5169661;27;20010;-67
2022/01/29 06:35:35;;;;;;;25.92;20.05;;;;;;;17.37;24.02;98038.25;5169528;27;20157;-67
2022/01/29 06:38:01;;;;;;;27.42;20.63;;;;;;;17.39;23.76;98036.22;5169444;27;20089;-67
2022/01/29 06:40:26;;;;;;;26.27;20.77;;;;;;;17.41;23.73;98040.53;5169858;27;20011;-67
2022/01/29 06:42:52;;;;;;;23.00;18.10;;;;;;;17.41;23.94;98037.88;5169402;27;20069;-66
2022/01/29 06:45:39;;;;;;;27.05;19.42;;;;;;;17.40;24.10;98039.69;5150012;27;20022;-67
2022/01/29 06:48:05;;;;;;;25.83;18.52;;;;;;;17.41;23.87;98046.69;5148707;27;20038;-66
2022/01/29 06:50:31;;;;;;;26.48;18.15;;;;;;;17.41;23.97;98049.38;5148624;28;20033;-66
2022/01/29 06:52:57;;;;;;;27.27;21.77;;;;;;;17.43;24.33;98049.16;5148649;27;20082;-66
2022/01/29 06:55:23;;;;;;;29.50;20.55;;;;;;;17.44;23.90;98042.78;5163751;27;20034;-66
2022/01/29 06:57:48;;;;;;;28.70;20.77;;;;;;;17.45;23.88;98050.63;5169236;27;20027;-67
2022/01/29 07:00:15;;;;;;;29.25;21.13;;;;;;;17.45;24.06;98050.63;5169366;27;20026;-67
2022/01/29 07:02:40;;;;;;;26.13;19.75;;;;;;;17.45;23.94;98050.63;5169252;27;20014;-69
2022/01/29 07:05:08;;;;;;;27.48;20.65;;;;;;;17.47;23.78;98059.28;5170829;27;20236;-66
2022/01/29 07:07:33;;;;;;;33.08;22.35;;;;;;;17.47;23.68;98053.94;5173373;27;20075;-69
2022/01/29 07:09:59;;;;;;;27.73;20.83;;;;;;;17.48;24.00;98060.94;5173537;27;20022;-68
2022/01/29 07:12:25;;;;;;;28.45;21.48;;;;;;;17.48;23.62;98062.75;5173288;27;20136;-67
2022/01/29 07:14:51;;;;;;;25.05;18.90;;;;;;;17.49;24.01;98064.41;5173373;27;20035;-66
2022/01/29 07:17:19;;;;;;;29.67;19.92;;;;;;;17.48;23.94;98070.78;5173223;27;20014;-66
2022/01/29 07:19:45;;;;;;;26.60;19.80;;;;;;;17.51;24.21;98073.88;5173408;27;20019;-66
2022/01/29 07:22:12;;;;;;;28.85;19.88;;;;;;;17.50;24.21;98074.88;5173212;27;20018;-66
2022/01/29 07:24:38;;;;;;;26.33;19.98;;;;;;;17.53;24.14;98071.00;5173207;27;20015;-66
2022/01/29 07:27:04;;;;;;;26.40;20.15;;;;;;;17.51;24.08;98073.88;5173145;27;20010;-67
2022/01/29 07:29:31;;;;;;;26.90;20.90;;;;;;;17.50;24.08;98066.88;5173137;27;20113;-68
2022/01/29 07:31:56;;;;;;;29.23;21.30;;;;;;;17.53;24.03;98066.47;5172963;27;20007;-66
2022/01/29 07:34:25;;;;;;;28.23;21.25;;;;;;;17.54;24.02;98067.31;5172853;27;20014;-66
2022/01/29 07:36:55;;;;;;;26.88;21.50;;;;;;;17.56;24.11;98064.44;5172855;27;20011;-67
2022/01/29 07:39:22;;;;;;;30.13;22.50;;;;;;;17.58;24.21;98063.19;5172802;27;20014;-67
2022/01/29 07:41:48;;;;;;;28.10;20.75;;;;;;;17.60;24.29;98060.31;5172830;27;20019;-67
2022/01/29 07:44:14;;;;;;;29.25;20.92;;;;;;;17.64;24.12;98066.94;5172640;27;20035;-67
2022/01/29 07:46:40;;;;;;;29.30;21.95;;;;;;;17.65;24.23;98058.69;5172811;27;20077;-66
2022/01/29 07:49:06;;;;;;;29.63;22.42;;;;;;;17.69;24.11;98062.63;5172657;27;20007;-66
2022/01/29 07:51:32;;;;;;;26.75;20.77;;;;;;;17.73;24.13;98065.69;5173023;27;20172;-66
2022/01/29 07:53:57;;;;;;;27.88;20.38;;;;;;;17.73;24.29;98060.34;5172586;27;20257;-65
2022/01/29 07:56:23;;;;;;;30.42;20.60;;;;;;;17.76;24.14;98069.81;5172568;27;20015;-67
2022/01/29 07:58:50;;;;;;;28.92;21.58;;;;;;;17.78;24.23;98057.06;5172480;27;20019;-66
2022/01/29 08:01:16;;;;;;;28.65;21.42;;;;;;;17.81;24.21;98068.16;5172554;27;20018;-66
2022/01/29 08:03:46;;;;;;;28.58;22.05;;;;;;;17.83;24.17;98076.00;5172426;27;20117;-66
2022/01/29 08:06:15;;;;;;;29.10;20.83;;;;;;;17.85;24.35;98068.59;5172085;27;20239;-67
2022/01/29 08:08:41;;;;;;;26.58;20.77;;;;;;;17.87;24.28;98073.75;5172341;27;20071;-67
2022/01/29 08:11:11;;;;;;;28.95;21.83;;;;;;;17.89;24.48;98069.81;5172277;27;20018;-66
2022/01/29 08:13:37;;;;;;;26.63;22.23;;;;;;;17.91;24.37;98072.31;5172206;27;20263;-67
2022/01/29 08:16:03;;;;;;;28.55;20.33;;;;;;;17.93;24.23;98063.03;5171925;27;20085;-66
2022/01/29 08:18:29;;;;;;;30.30;21.48;;;;;;;17.96;24.49;98059.97;5174123;27;20031;-66
2022/01/29 08:20:55;;;;;;;27.70;21.65;;;;;;;17.98;24.38;98063.28;5172185;27;20049;-66
2022/01/29 08:23:21;;;;;;;30.98;21.30;;;;;;;18.01;24.23;98072.75;5171906;27;20022;-66
2022/01/29 08:25:46;;;;;;;25.77;20.40;;;;;;;18.02;24.34;98065.53;5171879;27;20078;-66
2022/01/29 08:28:12;;;;;;;30.45;22.83;;;;;;;18.03;24.37;98072.53;5153844;27;20003;-67
2022/01/29 08:30:38;;;;;;;32.25;22.50;;;;;;;18.07;24.49;98071.09;5171919;27;20026;-67
2022/01/29 08:33:06;;;;;;;27.88;21.30;;;;;;;18.09;24.41;98075.22;5175545;27;20135;-66
2022/01/29 08:35:32;;;;;;;32.38;22.67;;;;;;;18.10;24.49;98068.84;5192041;27;20121;-66
2022/01/29 08:37:58;;;;;;;30.17;23.00;;;;;;;18.12;24.35;98071.31;5192610;27;20242;-67
2022/01/29 08:40:24;;;;;;;32.47;22.90;;;;;;;18.14;24.48;98070.06;5181764;27;20014;-67
2022/01/29 08:42:50;;;;;;;34.55;23.75;;;;;;;18.16;24.44;98072.53;5171725;27;20014;-66
2022/01/29 08:45:16;;;;;;;30.58;22.58;;;;;;;18.17;24.46;98068.84;5171505;27;20123;-66
2022/01/29 08:47:42;;;;;;;29.20;20.75;;;;;;;18.19;24.49;98065.97;5171565;27;20011;-66
2022/01/29 08:50:12;;;;;;;27.63;21.80;;;;;;;18.22;24.42;98070.91;5171629;27;20025;-67
2022/01/29 08:52:38;;;;;;;29.75;22.25;;;;;;;18.21;24.69;98063.91;5171506;27;20011;-66
2022/01/29 08:55:06;;;;;;;30.20;21.73;;;;;;;18.23;24.38;98065.34;5171251;27;20131;-66
2022/01/29 08:57:32;;;;;;;31.85;23.33;;;;;;;18.24;24.51;98076.84;5153200;27;20139;-66
2022/01/29 08:59:58;;;;;;;31.52;23.42;;;;;;;18.24;24.50;98064.31;5177419;27;20074;-66
2022/01/29 09:02:24;;;;;;;29.15;22.88;;;;;;;18.27;24.59;98077.28;5184602;27;20075;-66
2022/01/29 09:04:49;;;;;;;24.42;18.25;;;;;;;18.32;25.19;98076.66;5175784;27;20066;-66
2022/01/29 09:07:15;;;;;;;31.23;18.58;;;;;;;18.40;25.69;98086.34;5150314;27;20178;-66
2022/01/29 09:09:44;;;;;;;24.23;18.58;;;;;;;18.48;26.05;98086.13;5171076;27;20140;-65
2022/01/29 09:12:11;;;;;;;14.18;10.15;;;;;;;18.55;26.78;98094.13;5170821;27;20027;-66
2022/01/29 09:14:36;;;;;;;29.25;20.75;;;;;;;18.59;26.07;98082.81;5172134;27;20011;-66
2022/01/29 09:17:03;;;;;;;33.25;24.02;;;;;;;18.60;25.32;98087.13;5170806;27;20075;-65
2022/01/29 09:19:28;;;;;;;31.30;22.48;;;;;;;18.59;24.95;98093.53;5171145;27;20232;-65
2022/01/29 09:21:54;;;;;;;26.05;20.98;;;;;;;18.60;25.18;98072.91;5170877;27;20068;-66
2022/01/29 09:24:19;;;;;;;28.60;22.45;;;;;;;18.60;24.75;98080.97;5171757;27;20015;-66
2022/01/29 09:26:45;;;;;;;29.85;22.38;;;;;;;18.61;24.70;98080.72;5169361;27;20022;-64
2022/01/29 09:29:10;;;;;;;31.30;22.42;;;;;;;18.63;24.61;98082.38;5170053;27;20038;-65
2022/01/29 09:31:36;;;;;;;34.45;22.90;;;;;;;18.64;24.68;98092.06;5175389;27;20077;-64
2022/01/29 09:34:02;;;;;;;25.55;16.35;;;;;;;18.61;25.62;98083.41;5171820;27;20053;-64
2022/01/29 09:36:28;;;;;;;23.23;16.20;;;;;;;18.51;26.06;98098.28;5171659;27;20026;-65
2022/01/29 09:38:54;;;;;;;23.33;16.70;;;;;;;18.29;26.42;98101.16;5172679;27;20068;-67
2022/01/29 09:41:24;;;;;;;24.63;17.13;;;;;;;18.09;26.80;98096.63;5170315;27;20219;-66
2022/01/29 09:43:51;;;;;;;23.15;16.63;;;;;;;17.90;26.98;98092.06;5169861;27;20235;-66
2022/01/29 09:46:17;;;;;;;23.60;16.95;;;;;;;17.79;26.97;98093.47;5170062;27;20235;-66
2022/01/29 09:48:44;;;;;;;24.35;17.38;;;;;;;17.72;27.38;98087.31;5171944;27;20073;-67
2022/01/29 09:51:12;;;;;;;26.98;19.38;;;;;;;17.67;27.38;98091.41;5170399;27;20172;-67
2022/01/29 09:53:45;;;;;;;27.95;19.25;;;;;;;17.68;26.99;98098.41;5169496;27;20022;-69
2022/01/29 09:56:12;;;;;;;25.80;19.55;;;;;;;17.72;27.30;98101.50;5170217;27;20017;-65
2022/01/29 09:58:38;;;;;;;26.92;20.83;;;;;;;17.77;27.02;98101.72;5148586;27;20220;-66
2022/01/29 10:01:04;;;;;;;25.77;19.10;;;;;;;17.82;26.93;98109.13;5170626;27;20018;-65
2022/01/29 10:03:30;;;;;;;30.33;21.60;;;;;;;17.82;26.50;98104.59;5173545;27;20071;-66
2022/01/29 10:05:57;;;;;;;24.70;19.33;;;;;;;17.85;26.69;98116.75;5182520;27;20018;-67
2022/01/29 10:08:24;;;;;;;26.05;19.63;;;;;;;17.84;26.96;98113.25;5180725;27;20014;-65
2022/01/29 10:10:58;;;;;;;28.17;20.48;;;;;;;17.81;27.28;98105.63;5169746;27;20135;-65
2022/01/29 10:13:35;;;;;;;33.28;24.25;;;;;;;17.81;27.00;98110.16;5170413;27;20033;-66
2022/01/29 10:16:19;;;;;;;28.88;22.15;;;;;;;17.82;27.71;98106.47;5169811;27;20014;-66
2022/01/29 10:18:58;;;;;;;31.38;22.35;;;;;;;17.82;28.48;98107.28;5175408;27;20067;-67
2022/01/29 10:21:26;;;;;;;40.08;22.35;;;;;;;17.80;28.78;98108.50;5169570;27;20158;-65
2022/01/29 10:24:08;;;;;;;33.42;23.20;;;;;;;17.79;28.74;98101.50;5169491;27;20074;-67
2022/01/29 10:26:35;;;;;;;31.27;22.23;;;;;;;17.78;28.59;98098.03;5169380;27;20098;-65
2022/01/29 10:29:03;;;;;;;29.42;21.70;;;;;;;17.81;28.87;98100.28;5186091;27;20032;-65
2022/01/29 10:31:42;;;;;;;35.78;23.67;;;;;;;17.83;29.50;98100.91;5188998;27;20053;-65
2022/01/29 10:34:23;;;;;;;29.33;22.02;;;;;;;17.84;29.98;98099.06;5169158;27;20022;-65
2022/01/29 10:37:10;;;;;;;32.33;22.67;;;;;;;17.85;29.99;98093.50;5170269;27;20063;-64
2022/01/29 10:39:36;;;;;;;34.05;23.05;;;;;;;17.86;29.96;98099.69;5129930;27;20007;-65
2022/01/29 10:42:22;;;;;;;30.52;22.17;;;;;;;17.86;30.22;98099.69;5154618;27;20127;-65
2022/01/29 10:44:49;;;;;;;34.47;23.13;;;;;;;17.86;30.12;98099.69;5168820;27;20132;-65
2022/01/29 10:47:16;;;;;;;32.42;23.42;;;;;;;17.87;29.54;98097.81;5170061;27;20003;-66
2022/01/29 10:49:57;;;;;;;36.58;25.77;;;;;;;17.89;29.51;98101.94;5168655;27;20015;-66
2022/01/29 10:52:32;;;;;;;31.00;23.25;;;;;;;17.93;29.00;98102.38;5169582;27;20196;-64
2022/01/29 10:55:03;;;;;;;32.15;20.88;;;;;;;17.92;29.32;98096.19;5169340;27;20136;-65
2022/01/29 10:57:40;;;;;;;30.60;21.38;;;;;;;17.89;29.25;98091.22;5169868;27;20143;-65
2022/01/29 11:00:20;;;;;;;33.28;20.88;;;;;;;17.86;29.27;98080.97;5169253;27;20015;-79
2022/01/29 11:02:46;;;;;;;34.15;21.02;;;;;;;17.83;29.26;98073.31;5169506;27;20131;-66
2022/01/29 11:05:13;;;;;;;34.50;22.15;;;;;;;17.84;29.01;98091.84;5169046;27;20011;-65
2022/01/29 11:07:41;;;;;;;33.35;21.73;;;;;;;17.82;29.20;98091.22;5177684;27;20215;-65
2022/01/29 11:10:09;;;;;;;31.88;20.95;;;;;;;17.80;29.04;98093.28;5168825;27;20048;-66
2022/01/29 11:12:36;;;;;;;31.15;21.35;;;;;;;17.79;28.79;98083.59;5171473;27;20151;-65
2022/01/29 11:15:03;;;;;;;29.10;20.83;;;;;;;17.79;28.75;98088.13;5169130;27;20066;-66
2022/01/29 11:17:30;;;;;;;30.40;21.55;;;;;;;17.75;28.71;98087.72;5180554;27;20025;-66
2022/01/29 11:19:57;;;;;;;29.52;21.20;;;;;;;17.72;28.70;98088.13;5179756;27;20026;-66
2022/01/29 11:22:26;;;;;;;30.13;21.45;;;;;;;17.70;28.76;98087.50;5168037;27;20049;-66
2022/01/29 11:25:22;;;;;;;31.83;19.98;;;;;;;17.67;28.47;98083.38;5179459;27;20066;-66
2022/01/29 11:28:11;;;;;;;34.90;21.85;;;;;;;17.65;28.27;98081.91;5170280;27;20042;-66
2022/01/29 11:30:36;;;;;;;31.02;21.20;;;;;;;17.64;28.55;98074.94;5148204;28;20022;-65